createdAt,value
2019-02-19T00:01:19.904Z,3.75
2019-02-19T00:03:48.390Z,3.68
2019-02-19T00:06:17.241Z,3.69
2019-02-19T00:08:46.017Z,3.65
2019-02-19T00:11:14.856Z,3.62
2019-02-19T00:13:44.004Z,3.64
2019-02-19T00:16:12.774Z,3.63
2019-02-19T00:18:41.617Z,3.56
2019-02-19T00:21:10.416Z,3.50
2019-02-19T00:23:39.266Z,3.58
2019-02-19T00:26:37.535Z,3.56
2019-02-19T00:29:06.314Z,3.57
2019-02-19T00:31:35.193Z,3.60
2019-02-19T00:34:04.026Z,3.59
2019-02-19T00:36:32.787Z,3.60
2019-02-19T00:39:01.638Z,3.55
2019-02-19T00:41:30.409Z,3.54
2019-02-19T00:43:59.242Z,3.52
2019-02-19T00:46:28.031Z,3.20
2019-02-19T00:48:56.787Z,3.37
2019-02-19T00:51:25.567Z,3.33
2019-02-19T00:53:54.380Z,3.20
2019-02-19T00:56:23.423Z,3.18
2019-02-19T00:58:52.316Z,3.11
2019-02-19T01:01:21.166Z,3.10
2019-02-19T01:03:49.922Z,3.05
2019-02-19T01:06:18.758Z,3.07
2019-02-19T01:08:47.604Z,3.05
2019-02-19T01:11:16.442Z,3.05
2019-02-19T01:13:45.272Z,3.01
2019-02-19T01:16:14.124Z,2.86
2019-02-19T01:18:42.875Z,2.86
2019-02-19T01:21:11.729Z,2.85
2019-02-19T01:23:40.566Z,2.85
2019-02-19T01:26:09.424Z,2.84
2019-02-19T01:28:38.267Z,2.81
2019-02-19T01:31:07.096Z,2.64
2019-02-19T01:33:48.587Z,2.65
2019-02-19T01:36:17.367Z,2.69
2019-02-19T01:38:46.140Z,2.69
2019-02-19T01:41:14.983Z,2.70
2019-02-19T01:43:43.832Z,2.69
2019-02-19T01:46:12.705Z,2.73
2019-02-19T01:48:41.705Z,2.69
2019-02-19T01:51:10.490Z,2.74
2019-02-19T01:53:39.332Z,2.73
2019-02-19T01:56:08.095Z,2.65
2019-02-19T01:58:36.943Z,2.69
2019-02-19T02:01:05.765Z,2.70
2019-02-19T02:03:34.533Z,2.72
2019-02-19T02:06:03.383Z,2.67
2019-02-19T02:08:32.224Z,2.68
2019-02-19T02:11:01.165Z,2.69
2019-02-19T02:13:30.028Z,2.68
2019-02-19T02:15:58.854Z,2.73
2019-02-19T02:18:27.643Z,2.79
2019-02-19T02:20:56.417Z,2.81
2019-02-19T02:23:25.196Z,2.81
2019-02-19T02:25:54.028Z,2.81
2019-02-19T02:28:22.804Z,2.89
2019-02-19T02:30:51.636Z,2.92
2019-02-19T02:33:20.483Z,2.96
2019-02-19T02:35:49.256Z,2.93
2019-02-19T02:38:18.301Z,2.93
2019-02-19T02:40:47.155Z,2.94
2019-02-19T02:43:15.956Z,2.99
2019-02-19T02:45:52.840Z,2.93
2019-02-19T02:48:15.270Z,2.94
2019-02-19T02:50:44.047Z,2.89
2019-02-19T02:53:12.886Z,2.82
2019-02-19T02:55:41.731Z,2.79
2019-02-19T02:58:10.487Z,2.77
2019-02-19T03:00:39.274Z,2.70
2019-02-19T03:03:08.048Z,2.66
2019-02-19T03:05:38.458Z,2.60
2019-02-19T03:08:07.235Z,2.58
2019-02-19T03:10:36.011Z,2.55
2019-02-19T03:13:04.769Z,2.42
2019-02-19T03:15:33.617Z,2.36
2019-02-19T03:18:02.460Z,2.37
2019-02-19T03:20:31.295Z,2.31
2019-02-19T03:23:00.115Z,2.34
2019-02-19T03:25:28.956Z,2.29
2019-02-19T03:27:57.740Z,2.33
2019-02-19T03:30:26.575Z,2.29
2019-02-19T03:32:55.338Z,2.30
2019-02-19T03:35:24.110Z,2.27
2019-02-19T03:37:52.943Z,2.22
2019-02-19T03:40:21.788Z,2.18
2019-02-19T03:42:50.648Z,2.13
2019-02-19T03:45:19.414Z,2.08
2019-02-19T03:47:48.251Z,2.02
2019-02-19T03:50:17.040Z,1.96
2019-02-19T03:52:45.871Z,1.88
2019-02-19T03:55:14.624Z,1.79
2019-02-19T03:57:43.394Z,1.64
2019-02-19T04:00:12.268Z,1.64
2019-02-19T04:02:41.085Z,1.60
2019-02-19T04:05:09.846Z,1.61
2019-02-19T04:07:38.608Z,1.58
2019-02-19T04:10:08.856Z,1.58
2019-02-19T04:12:37.706Z,1.48
2019-02-19T04:15:07.652Z,1.48
2019-02-19T04:17:36.422Z,1.32
2019-02-19T04:20:07.075Z,1.32
2019-02-19T04:22:35.903Z,1.36
2019-02-19T04:25:05.066Z,1.31
2019-02-19T04:27:33.909Z,1.21
2019-02-19T04:30:02.797Z,1.17
2019-02-19T04:32:31.639Z,1.17
2019-02-19T04:35:00.583Z,1.27
2019-02-19T04:37:30.124Z,1.28
2019-02-19T04:39:58.976Z,1.30
2019-02-19T04:42:27.764Z,1.30
2019-02-19T04:44:56.515Z,1.30
2019-02-19T04:47:25.297Z,1.33
2019-02-19T04:49:54.131Z,1.27
2019-02-19T04:52:22.986Z,1.27
2019-02-19T04:54:51.826Z,1.30
2019-02-19T04:57:20.719Z,1.33
2019-02-19T04:59:49.477Z,1.33
2019-02-19T05:02:18.333Z,1.38
2019-02-19T05:04:47.177Z,1.38
2019-02-19T05:07:15.948Z,1.35
2019-02-19T05:09:44.808Z,1.34
2019-02-19T05:12:13.586Z,1.36
2019-02-19T05:14:42.423Z,1.39
2019-02-19T05:17:11.252Z,1.36
2019-02-19T05:19:40.113Z,1.30
2019-02-19T05:22:08.964Z,1.34
2019-02-19T05:24:37.825Z,1.33
2019-02-19T05:27:06.599Z,1.33
2019-02-19T05:29:35.542Z,1.33
2019-02-19T05:32:04.378Z,1.30
2019-02-19T05:34:33.214Z,1.31
2019-02-19T05:37:02.042Z,1.31
2019-02-19T05:39:30.818Z,1.37
2019-02-19T05:41:59.649Z,1.47
2019-02-19T05:44:28.425Z,1.47
2019-02-19T05:46:57.276Z,1.61
2019-02-19T05:49:26.044Z,1.74
2019-02-19T05:51:54.823Z,1.84
2019-02-19T05:54:23.681Z,1.96
2019-02-19T05:56:52.528Z,2.10
2019-02-19T05:59:21.349Z,2.15
2019-02-19T06:01:50.206Z,2.38
2019-02-19T06:04:18.978Z,2.52
2019-02-19T06:06:47.837Z,2.67
2019-02-19T06:09:16.693Z,2.67
2019-02-19T06:11:45.517Z,2.62
2019-02-19T06:14:14.367Z,2.74
2019-02-19T06:16:43.273Z,2.82
2019-02-19T06:19:12.058Z,2.90
2019-02-19T06:21:40.907Z,3.08
2019-02-19T06:24:09.763Z,3.08
2019-02-19T06:26:38.552Z,3.11
2019-02-19T06:29:07.414Z,3.27
2019-02-19T06:31:36.238Z,3.34
2019-02-19T06:34:05.055Z,3.41
2019-02-19T06:36:33.901Z,3.52
2019-02-19T06:39:02.740Z,3.65
2019-02-19T06:41:31.579Z,3.63
2019-02-19T06:44:00.417Z,3.79
2019-02-19T06:46:29.187Z,3.78
2019-02-19T06:48:58.052Z,4.01
2019-02-19T06:51:26.865Z,4.14
2019-02-19T06:53:55.716Z,4.41
2019-02-19T06:56:24.483Z,4.75
2019-02-19T06:58:53.236Z,4.74
2019-02-19T07:01:23.642Z,4.90
2019-02-19T07:03:57.019Z,5.04
2019-02-19T07:06:25.800Z,5.42
2019-02-19T07:08:54.643Z,5.55
2019-02-19T07:11:23.449Z,5.85
2019-02-19T07:13:52.282Z,5.88
2019-02-19T07:16:21.116Z,6.08
2019-02-19T07:18:49.972Z,6.08
2019-02-19T07:21:18.730Z,6.33
2019-02-19T07:23:47.490Z,6.28
2019-02-19T07:26:16.233Z,6.52
2019-02-19T07:28:45.123Z,6.67
2019-02-19T07:31:14.511Z,7.02
2019-02-19T07:33:43.861Z,7.36
2019-02-19T07:36:12.635Z,7.49
2019-02-19T07:38:42.096Z,7.59
2019-02-19T07:41:11.547Z,7.84
2019-02-19T07:43:40.963Z,8.06
2019-02-19T07:46:10.405Z,8.54
2019-02-19T07:48:39.862Z,8.59
2019-02-19T07:51:09.270Z,8.57
2019-02-19T07:53:38.626Z,8.67
2019-02-19T07:56:07.977Z,8.74
2019-02-19T07:58:37.333Z,8.77
2019-02-19T08:01:06.764Z,9.06
2019-02-19T08:03:36.179Z,9.02
2019-02-19T08:06:05.551Z,9.17
2019-02-19T08:08:34.985Z,9.05
2019-02-19T08:11:04.326Z,9.35
2019-02-19T08:13:33.738Z,9.59
2019-02-19T08:16:03.109Z,9.62
2019-02-19T08:18:32.532Z,9.75
2019-02-19T08:21:01.961Z,9.90
2019-02-19T08:23:31.314Z,9.80
2019-02-19T08:26:00.732Z,9.85
2019-02-19T08:28:30.168Z,10.26
2019-02-19T08:30:59.604Z,10.39
2019-02-19T08:33:28.967Z,10.36
2019-02-19T08:35:58.326Z,10.62
2019-02-19T08:38:27.760Z,10.74
2019-02-19T08:40:57.134Z,11.11
2019-02-19T08:43:26.638Z,11.10
2019-02-19T08:45:56.007Z,11.27
2019-02-19T08:48:25.355Z,11.37
2019-02-19T08:50:54.714Z,11.75
2019-02-19T08:53:24.075Z,11.43
2019-02-19T08:55:53.443Z,11.43
2019-02-19T08:58:22.890Z,11.63
2019-02-19T09:00:52.220Z,11.97
2019-02-19T09:03:21.583Z,12.04
2019-02-19T09:05:51.025Z,12.09
2019-02-19T09:08:20.470Z,12.34
2019-02-19T09:10:49.836Z,12.52
2019-02-19T09:13:19.201Z,12.42
2019-02-19T09:15:48.557Z,12.48
2019-02-19T09:18:17.927Z,12.86
2019-02-19T09:20:47.369Z,12.74
2019-02-19T09:23:16.732Z,13.06
2019-02-19T09:25:46.092Z,13.30
2019-02-19T09:28:15.473Z,13.39
2019-02-19T09:30:44.905Z,13.42
2019-02-19T09:33:14.253Z,13.71
2019-02-19T09:35:43.598Z,13.54
2019-02-19T09:38:13.021Z,14.13
2019-02-19T09:40:42.367Z,14.10
2019-02-19T09:43:11.814Z,14.02
2019-02-19T09:45:41.185Z,14.11
2019-02-19T09:48:10.577Z,14.24
2019-02-19T09:50:39.926Z,14.12
2019-02-19T09:53:09.364Z,14.54
2019-02-19T09:55:38.795Z,14.58
2019-02-19T09:58:08.201Z,14.52
2019-02-19T10:00:37.650Z,14.31
2019-02-19T10:03:07.029Z,14.54
2019-02-19T10:05:36.429Z,14.14
2019-02-19T10:08:05.793Z,14.58
2019-02-19T10:10:35.153Z,14.97
2019-02-19T10:13:04.580Z,15.03
2019-02-19T10:15:34.020Z,15.59
2019-02-19T10:18:09.874Z,15.51
2019-02-19T10:20:34.494Z,15.69
2019-02-19T10:23:03.877Z,15.45
2019-02-19T10:25:33.247Z,15.85
2019-02-19T10:28:02.605Z,16.03
2019-02-19T10:30:32.038Z,16.29
2019-02-19T10:33:01.425Z,16.30
2019-02-19T10:35:30.782Z,16.32
2019-02-19T10:38:00.214Z,16.30
2019-02-19T10:40:29.648Z,16.35
2019-02-19T10:42:59.015Z,16.44
2019-02-19T10:45:28.453Z,16.79
2019-02-19T10:47:57.806Z,16.10
2019-02-19T10:50:27.230Z,16.59
2019-02-19T10:52:56.582Z,16.72
2019-02-19T10:55:26.030Z,17.01
2019-02-19T10:57:55.474Z,17.35
2019-02-19T11:00:24.904Z,17.39
2019-02-19T11:02:54.339Z,17.43
2019-02-19T11:05:23.726Z,17.64
2019-02-19T11:07:53.183Z,17.73
2019-02-19T11:10:22.873Z,17.71
2019-02-19T11:12:52.318Z,17.67
2019-02-19T11:15:21.753Z,17.76
2019-02-19T11:17:51.155Z,17.62
2019-02-19T11:20:22.230Z,17.71
2019-02-19T11:22:51.658Z,17.83
2019-02-19T11:25:21.107Z,18.06
2019-02-19T11:27:50.592Z,18.29
2019-02-19T11:30:20.777Z,18.35
2019-02-19T11:32:50.267Z,18.38
2019-02-19T11:35:19.711Z,18.13
2019-02-19T11:37:49.139Z,18.02
2019-02-19T11:40:18.572Z,18.47
2019-02-19T11:42:47.964Z,18.24
2019-02-19T11:45:18.807Z,18.10
2019-02-19T11:47:48.248Z,17.62
2019-02-19T11:50:17.681Z,17.92
2019-02-19T11:52:47.033Z,18.39
2019-02-19T11:55:19.933Z,18.32
2019-02-19T11:57:49.368Z,18.66
2019-02-19T12:00:20.390Z,18.48
2019-02-19T12:02:49.817Z,18.79
2019-02-19T12:05:19.163Z,18.77
2019-02-19T12:07:48.590Z,18.92
2019-02-19T12:10:17.998Z,18.98
2019-02-19T12:12:47.364Z,19.10
2019-02-19T12:15:16.790Z,19.06
2019-02-19T12:17:46.155Z,18.56
2019-02-19T12:20:15.612Z,18.46
2019-02-19T12:22:45.062Z,18.85
2019-02-19T12:25:14.398Z,18.41
2019-02-19T12:27:43.828Z,17.70
2019-02-19T12:30:18.403Z,17.78
2019-02-19T12:32:47.776Z,18.55
2019-02-19T12:35:17.199Z,18.64
2019-02-19T12:37:46.643Z,18.12
2019-02-19T12:40:16.068Z,17.71
2019-02-19T12:42:45.520Z,17.59
2019-02-19T12:45:15.480Z,17.70
2019-02-19T12:47:44.922Z,17.87
2019-02-19T12:50:18.252Z,17.82
2019-02-19T12:52:47.673Z,17.54
2019-02-19T12:55:17.054Z,17.75
2019-02-19T12:57:46.416Z,17.90
2019-02-19T13:00:19.884Z,17.75
2019-02-19T13:02:49.282Z,18.08
2019-02-19T13:05:18.697Z,18.04
2019-02-19T13:07:48.132Z,18.08
2019-02-19T13:10:17.510Z,18.35
2019-02-19T13:12:46.888Z,18.49
2019-02-19T13:15:18.070Z,17.85
2019-02-19T13:17:47.451Z,17.69
2019-02-19T13:20:16.819Z,17.39
2019-02-19T13:22:46.268Z,17.06
2019-02-19T13:25:15.730Z,17.87
2019-02-19T13:27:45.180Z,18.12
2019-02-19T13:30:19.845Z,18.29
2019-02-19T13:32:49.232Z,18.67
2019-02-19T13:35:18.678Z,18.76
2019-02-19T13:37:48.119Z,18.87
2019-02-19T13:40:18.875Z,18.93
2019-02-19T13:42:48.246Z,18.87
2019-02-19T13:45:17.729Z,18.90
2019-02-19T13:47:47.104Z,19.00
2019-02-19T13:50:19.395Z,18.46
2019-02-19T13:52:50.393Z,18.61
2019-02-19T13:55:21.426Z,18.76
2019-02-19T13:57:50.800Z,18.36
2019-02-19T14:00:24.602Z,18.66
2019-02-19T14:02:53.970Z,18.68
2019-02-19T14:05:23.435Z,19.29
2019-02-19T14:07:52.800Z,19.08
2019-02-19T14:10:22.175Z,19.58
2019-02-19T14:12:51.636Z,19.43
2019-02-19T14:15:34.561Z,19.10
2019-02-19T14:18:05.396Z,18.85
2019-02-19T14:20:48.302Z,18.06
2019-02-19T14:23:31.057Z,17.92
2019-02-19T14:26:02.113Z,17.96
2019-02-19T14:28:45.112Z,18.03
2019-02-19T14:31:32.292Z,18.10
2019-02-19T14:34:19.485Z,17.87
2019-02-19T14:36:56.297Z,17.90
2019-02-19T14:39:36.045Z,17.60
2019-02-19T14:42:19.045Z,17.83
2019-02-19T14:45:01.890Z,17.93
2019-02-19T14:47:32.923Z,17.99
2019-02-19T14:50:03.936Z,17.64
2019-02-19T14:52:52.809Z,17.42
2019-02-19T14:55:39.757Z,17.58
2019-02-19T14:58:10.822Z,17.61
2019-02-19T15:00:56.709Z,17.10
2019-02-19T15:03:42.589Z,16.98
2019-02-19T15:06:25.513Z,16.89
2019-02-19T15:09:02.269Z,16.78
2019-02-19T15:11:35.960Z,16.80
2019-02-19T15:14:21.838Z,16.65
2019-02-19T15:16:55.825Z,16.54
2019-02-19T15:19:39.077Z,16.29
2019-02-19T15:22:08.395Z,16.26
2019-02-19T15:24:48.237Z,16.12
2019-02-19T15:27:31.094Z,16.06
2019-02-19T15:30:05.123Z,15.87
2019-02-19T15:32:38.803Z,15.68
2019-02-19T15:35:25.909Z,15.48
2019-02-19T15:38:02.731Z,15.36
2019-02-19T15:40:49.905Z,15.24
2019-02-19T15:43:32.752Z,14.91
2019-02-19T15:46:03.773Z,14.84
2019-02-19T15:48:46.915Z,14.69
2019-02-19T15:51:17.924Z,14.43
2019-02-19T15:53:58.019Z,14.24
2019-02-19T15:56:29.000Z,14.08
2019-02-19T15:59:15.921Z,13.78
2019-02-19T16:01:55.926Z,13.66
2019-02-19T16:04:26.969Z,13.52
2019-02-19T16:07:00.403Z,13.36
2019-02-19T16:09:34.222Z,13.23
2019-02-19T16:12:17.076Z,13.11
2019-02-19T16:14:57.068Z,12.97
2019-02-19T16:17:44.233Z,12.87
2019-02-19T16:20:31.170Z,12.73
2019-02-19T16:23:07.987Z,12.52
2019-02-19T16:25:39.031Z,12.41
2019-02-19T16:28:12.732Z,12.28
2019-02-19T16:30:59.990Z,12.19
2019-02-19T16:33:46.021Z,12.11
2019-02-19T16:36:33.090Z,11.92
2019-02-19T16:39:20.256Z,11.84
2019-02-19T16:42:00.034Z,11.65
2019-02-19T16:44:33.837Z,11.53
2019-02-19T16:47:23.012Z,11.45
2019-02-19T16:50:07.630Z,11.30
2019-02-19T16:52:35.966Z,11.19
2019-02-19T16:55:17.907Z,11.10
2019-02-19T16:57:48.638Z,11.06
2019-02-19T17:00:28.728Z,10.97
2019-02-19T17:02:59.766Z,10.90
2019-02-19T17:05:33.792Z,10.85
2019-02-19T17:08:20.738Z,10.80
2019-02-19T17:10:57.444Z,10.74
2019-02-19T17:13:44.583Z,10.66
2019-02-19T17:16:15.630Z,10.63
2019-02-19T17:19:01.509Z,10.57
2019-02-19T17:21:35.386Z,10.45
2019-02-19T17:24:09.110Z,10.36
2019-02-19T17:26:42.868Z,10.27
2019-02-19T17:29:22.725Z,10.22
2019-02-19T17:32:10.172Z,10.19
2019-02-19T17:34:44.014Z,10.04
2019-02-19T17:37:15.019Z,10.01
2019-02-19T17:39:48.790Z,9.95
2019-02-19T17:42:31.685Z,9.85
2019-02-19T17:45:11.824Z,9.82
2019-02-19T17:47:48.898Z,9.65
2019-02-19T17:50:19.910Z,9.53
2019-02-19T17:52:53.650Z,9.47
2019-02-19T17:55:40.816Z,9.43
2019-02-19T17:58:30.070Z,9.36
2019-02-19T18:01:04.083Z,9.30
2019-02-19T18:03:46.961Z,9.33
2019-02-19T18:06:24.250Z,9.25
2019-02-19T18:09:01.368Z,9.11
2019-02-19T18:11:35.332Z,9.17
2019-02-19T18:14:12.042Z,9.28
2019-02-19T18:16:43.065Z,9.24
2019-02-19T18:19:12.428Z,9.24
2019-02-19T18:21:42.319Z,9.13
2019-02-19T18:24:11.728Z,9.11
2019-02-19T18:26:41.234Z,9.12
2019-02-19T18:29:10.813Z,9.09
2019-02-19T18:31:40.231Z,8.89
2019-02-19T18:34:09.658Z,8.81
2019-02-19T18:36:39.127Z,8.82
2019-02-19T18:39:08.690Z,8.75
2019-02-19T18:41:38.063Z,8.77
2019-02-19T18:44:07.502Z,8.67
2019-02-19T18:46:36.937Z,8.60
2019-02-19T18:49:06.386Z,8.38
2019-02-19T18:51:35.841Z,8.24
2019-02-19T18:54:05.287Z,8.16
2019-02-19T18:56:34.425Z,8.12
2019-02-19T18:59:03.860Z,8.07
2019-02-19T19:01:35.106Z,8.06
2019-02-19T19:04:04.651Z,8.01
2019-02-19T19:06:33.517Z,7.97
2019-02-19T19:09:04.278Z,7.92
2019-02-19T19:11:33.694Z,7.87
2019-02-19T19:14:03.173Z,7.81
2019-02-19T19:16:32.621Z,7.72
2019-02-19T19:19:01.484Z,7.67
2019-02-19T19:21:30.938Z,7.66
2019-02-19T19:24:00.398Z,7.65
2019-02-19T19:26:29.273Z,7.60
2019-02-19T19:28:58.743Z,7.56
2019-02-19T19:31:33.621Z,7.45
2019-02-19T19:33:58.700Z,7.44
2019-02-19T19:36:28.135Z,7.38
2019-02-19T19:38:57.600Z,7.38
2019-02-19T19:41:27.039Z,7.23
2019-02-19T19:43:56.188Z,7.20
2019-02-19T19:46:25.634Z,7.16
2019-02-19T19:48:54.416Z,7.10
2019-02-19T19:51:23.226Z,7.10
2019-02-19T19:53:52.011Z,7.04
2019-02-19T19:56:21.519Z,6.92
2019-02-19T19:58:50.376Z,6.91
2019-02-19T20:01:19.155Z,6.89
2019-02-19T20:03:48.047Z,6.91
2019-02-19T20:06:16.947Z,6.92
2019-02-19T20:08:45.809Z,6.89
2019-02-19T20:11:14.661Z,6.88
2019-02-19T20:13:43.523Z,6.87
2019-02-19T20:16:12.986Z,6.83
2019-02-19T20:18:41.841Z,6.80
2019-02-19T20:21:10.699Z,6.73
2019-02-19T20:23:39.563Z,6.59
2019-02-19T20:26:08.423Z,6.59
2019-02-19T20:28:37.269Z,6.57
2019-02-19T20:31:06.113Z,6.55
2019-02-19T20:33:35.122Z,6.54
2019-02-19T20:36:03.980Z,6.53
2019-02-19T20:38:32.829Z,6.54
2019-02-19T20:41:01.685Z,6.48
2019-02-19T20:43:30.477Z,6.40
2019-02-19T20:45:59.546Z,6.34
2019-02-19T20:48:28.404Z,6.31
2019-02-19T20:50:57.289Z,6.26
2019-02-19T20:53:26.072Z,6.25
2019-02-19T20:55:54.866Z,6.18
2019-02-19T20:58:23.703Z,6.12
2019-02-19T21:00:55.421Z,6.00
2019-02-19T21:03:24.221Z,6.07
2019-02-19T21:05:53.059Z,6.05
2019-02-19T21:08:21.833Z,6.03
2019-02-19T21:10:50.601Z,5.94
2019-02-19T21:13:19.445Z,5.83
2019-02-19T21:15:48.300Z,5.71
2019-02-19T21:18:17.146Z,5.74
2019-02-19T21:20:46.015Z,5.73
2019-02-19T21:23:14.856Z,5.68
2019-02-19T21:25:43.636Z,5.68
2019-02-19T21:28:12.406Z,5.70
2019-02-19T21:30:41.195Z,5.73
2019-02-19T21:33:10.046Z,5.68
2019-02-19T21:35:38.798Z,5.60
2019-02-19T21:38:07.650Z,5.53
2019-02-19T21:40:36.430Z,5.49
2019-02-19T21:43:05.213Z,5.46
2019-02-19T21:45:34.055Z,5.44
2019-02-19T21:48:02.838Z,5.41
2019-02-19T21:50:31.605Z,5.39
2019-02-19T21:53:00.374Z,5.40
2019-02-19T21:55:29.140Z,5.29
2019-02-19T21:57:59.702Z,5.28
2019-02-19T22:00:28.576Z,5.24
2019-02-19T22:02:57.363Z,5.10
2019-02-19T22:05:26.139Z,5.05
2019-02-19T22:07:54.985Z,4.99
2019-02-19T22:10:23.823Z,4.95
2019-02-19T22:12:52.599Z,4.79
2019-02-19T22:15:21.374Z,4.66
2019-02-19T22:17:50.484Z,4.61
2019-02-19T22:20:24.767Z,4.56
2019-02-19T22:22:53.588Z,4.56
2019-02-19T22:25:22.359Z,4.50
2019-02-19T22:27:51.123Z,4.49
2019-02-19T22:30:19.960Z,4.44
2019-02-19T22:32:48.817Z,4.41
2019-02-19T22:35:17.587Z,4.43
2019-02-19T22:37:46.359Z,4.45
2019-02-19T22:40:15.135Z,4.42
2019-02-19T22:42:43.981Z,4.40
2019-02-19T22:45:12.805Z,4.37
2019-02-19T22:47:41.641Z,4.33
2019-02-19T22:50:10.590Z,4.35
2019-02-19T22:52:39.367Z,4.39
2019-02-19T22:55:11.263Z,4.28
2019-02-19T22:57:40.034Z,4.26
2019-02-19T23:00:19.215Z,4.20
2019-02-19T23:02:48.354Z,4.15
2019-02-19T23:05:17.134Z,4.17
2019-02-19T23:07:45.937Z,4.18
2019-02-19T23:10:14.705Z,4.19
2019-02-19T23:12:43.474Z,4.25
2019-02-19T23:15:12.395Z,4.27
2019-02-19T23:17:41.159Z,4.21
2019-02-19T23:20:09.962Z,4.16
2019-02-19T23:22:38.760Z,4.17
2019-02-19T23:25:07.549Z,4.26
2019-02-19T23:27:36.294Z,4.29
2019-02-19T23:30:06.356Z,4.33
2019-02-19T23:32:35.326Z,4.29
2019-02-19T23:35:11.743Z,4.27
2019-02-19T23:37:40.567Z,4.28
2019-02-19T23:40:09.410Z,4.33
2019-02-19T23:42:38.178Z,4.36
2019-02-19T23:45:08.440Z,4.36
2019-02-19T23:47:37.214Z,4.37
2019-02-19T23:50:08.060Z,4.33
2019-02-19T23:52:36.895Z,4.25
2019-02-19T23:55:07.542Z,4.22
2019-02-19T23:57:36.309Z,4.23
